createdAt,value
2017-04-04T00:00:33.506Z,11.23
2017-04-04T00:01:14.075Z,11.23
2017-04-04T00:01:54.662Z,11.23
2017-04-04T00:02:35.227Z,11.14
2017-04-04T00:03:15.796Z,11.19
2017-04-04T00:03:56.395Z,11.18
2017-04-04T00:04:36.982Z,11.17
2017-04-04T00:05:17.550Z,11.15
2017-04-04T00:05:58.145Z,11.1
2017-04-04T00:06:38.764Z,11.11
2017-04-04T00:07:19.385Z,11.07
2017-04-04T00:07:59.974Z,11.18
2017-04-04T00:08:40.552Z,11.11
2017-04-04T00:09:21.140Z,11.15
2017-04-04T00:10:01.734Z,11.18
2017-04-04T00:10:42.440Z,11.14
2017-04-04T00:11:23.013Z,11.11
2017-04-04T00:12:03.616Z,11.11
2017-04-04T00:12:44.183Z,11.12
2017-04-04T00:13:24.768Z,11.17
2017-04-04T00:14:05.338Z,11.18
2017-04-04T00:14:45.949Z,11.14
2017-04-04T00:15:26.521Z,11.12
2017-04-04T00:16:07.121Z,11.1
2017-04-04T00:16:47.773Z,11.12
2017-04-04T00:17:28.261Z,11.17
2017-04-04T00:18:08.865Z,11.1
2017-04-04T00:18:49.460Z,11.12
2017-04-04T00:19:30.041Z,11.19
2017-04-04T00:20:10.649Z,11.1
2017-04-04T00:20:51.233Z,11.18
2017-04-04T00:21:31.823Z,11.12
2017-04-04T00:22:12.411Z,11.1
2017-04-04T00:22:52.994Z,11.14
2017-04-04T00:23:33.579Z,11.14
2017-04-04T00:24:14.161Z,11.05
2017-04-04T00:24:54.851Z,11.14
2017-04-04T00:25:35.456Z,11.08
2017-04-04T00:26:16.033Z,11.15
2017-04-04T00:26:56.642Z,11.1
2017-04-04T00:27:37.233Z,11.11
2017-04-04T00:28:17.819Z,11.1
2017-04-04T00:28:58.401Z,11.11
2017-04-04T00:29:39.022Z,11.11
2017-04-04T00:30:20.550Z,11.12
2017-04-04T00:31:01.110Z,11.07
2017-04-04T00:31:41.692Z,11.05
2017-04-04T00:32:22.304Z,11.08
2017-04-04T00:33:02.868Z,11.08
2017-04-04T00:33:43.479Z,11.1
2017-04-04T00:34:24.051Z,11.18
2017-04-04T00:35:04.651Z,11.14
2017-04-04T00:35:45.265Z,11.18
2017-04-04T00:36:25.853Z,11.11
2017-04-04T00:37:06.426Z,11.18
2017-04-04T00:37:47.004Z,11.14
2017-04-04T00:38:27.600Z,11.12
2017-04-04T00:39:08.193Z,11.08
2017-04-04T00:39:48.781Z,11.12
2017-04-04T00:40:29.353Z,11.05
2017-04-04T00:41:09.938Z,11.07
2017-04-04T00:41:50.528Z,11.15
2017-04-04T00:42:31.123Z,11.1
2017-04-04T00:43:11.690Z,11.08
2017-04-04T00:43:52.275Z,11.04
2017-04-04T00:44:32.867Z,11.12
2017-04-04T00:45:13.463Z,11.12
2017-04-04T00:45:54.035Z,11.08
2017-04-04T00:46:34.617Z,11.08
2017-04-04T00:47:15.232Z,11.05
2017-04-04T00:47:55.820Z,11.08
2017-04-04T00:48:36.403Z,11.02
2017-04-04T00:49:16.976Z,11.07
2017-04-04T00:49:57.548Z,11.07
2017-04-04T00:50:38.131Z,11.1
2017-04-04T00:51:18.735Z,11.12
2017-04-04T00:51:59.340Z,11.05
2017-04-04T00:52:39.951Z,11.07
2017-04-04T00:53:20.525Z,11.04
2017-04-04T00:54:01.114Z,11.04
2017-04-04T00:54:41.727Z,11.07
2017-04-04T00:55:22.317Z,11.04
2017-04-04T00:56:02.892Z,11.12
2017-04-04T00:56:43.477Z,11.1
2017-04-04T00:57:24.056Z,11.07
2017-04-04T00:58:04.643Z,11.1
2017-04-04T00:58:45.215Z,11.07
2017-04-04T00:59:25.805Z,11.08
2017-04-04T01:00:06.478Z,11.12
2017-04-04T01:00:47.094Z,11.07
2017-04-04T01:01:27.743Z,11.05
2017-04-04T01:02:08.319Z,11.07
2017-04-04T01:02:48.930Z,11
2017-04-04T01:03:29.522Z,11.11
2017-04-04T01:04:10.162Z,11.04
2017-04-04T01:04:50.770Z,11.07
2017-04-04T01:05:31.414Z,11.1
2017-04-04T01:06:11.995Z,11.07
2017-04-04T01:06:52.605Z,11.07
2017-04-04T01:07:33.208Z,11.08
2017-04-04T01:08:13.803Z,11.15
2017-04-04T01:08:54.377Z,11.11
2017-04-04T01:09:34.962Z,11.14
2017-04-04T01:10:15.573Z,11.14
2017-04-04T01:10:56.156Z,11.11
2017-04-04T01:11:36.758Z,11.23
2017-04-04T01:12:17.391Z,11.25
2017-04-04T01:12:57.991Z,11.25
2017-04-04T01:13:38.597Z,11.27
2017-04-04T01:14:19.180Z,11.25
2017-04-04T01:14:59.779Z,11.25
2017-04-04T01:15:40.446Z,11.26
2017-04-04T01:16:21.027Z,11.23
2017-04-04T01:17:01.647Z,11.26
2017-04-04T01:17:42.263Z,11.22
2017-04-04T01:18:22.909Z,11.23
2017-04-04T01:19:03.501Z,11.17
2017-04-04T01:19:44.097Z,11.18
2017-04-04T01:20:24.677Z,11.1
2017-04-04T01:21:05.280Z,11.08
2017-04-04T01:21:45.922Z,11.08
2017-04-04T01:22:26.485Z,11.11
2017-04-04T01:23:07.101Z,11.12
2017-04-04T01:23:47.684Z,11.17
2017-04-04T01:24:28.267Z,11.14
2017-04-04T01:25:08.854Z,11.17
2017-04-04T01:25:49.447Z,11.11
2017-04-04T01:26:30.026Z,11.17
2017-04-04T01:27:10.597Z,11.15
2017-04-04T01:27:51.208Z,11.11
2017-04-04T01:28:31.811Z,11.17
2017-04-04T01:29:12.414Z,11.08
2017-04-04T01:29:53.007Z,11.08
2017-04-04T01:30:33.584Z,11.15
2017-04-04T01:31:21.071Z,11.1
2017-04-04T01:33:08.568Z,11.15
2017-04-04T01:33:49.143Z,11.18
2017-04-04T01:34:29.734Z,11.11
2017-04-04T01:35:10.322Z,11.14
2017-04-04T01:35:50.914Z,11.12
2017-04-04T01:36:31.532Z,11.22
2017-04-04T01:37:12.245Z,11.08
2017-04-04T01:37:52.844Z,11.18
2017-04-04T01:38:33.423Z,11.14
2017-04-04T01:39:14.019Z,11.12
2017-04-04T01:39:54.648Z,11.12
2017-04-04T01:40:35.243Z,11.08
2017-04-04T01:41:15.810Z,11.11
2017-04-04T01:41:56.389Z,11.17
2017-04-04T01:42:37.001Z,11.17
2017-04-04T01:43:17.619Z,11.1
2017-04-04T01:43:58.191Z,11.12
2017-04-04T01:44:38.762Z,11.07
2017-04-04T01:45:19.374Z,11.18
2017-04-04T01:45:59.958Z,11.17
2017-04-04T01:46:40.550Z,11.08
2017-04-04T01:47:21.171Z,11.18
2017-04-04T01:48:01.757Z,11.15
2017-04-04T01:48:42.376Z,11.11
2017-04-04T01:49:23.006Z,11.17
2017-04-04T01:50:03.579Z,11.18
2017-04-04T01:50:44.379Z,11.18
2017-04-04T01:51:24.954Z,11.19
2017-04-04T01:52:05.558Z,11.22
2017-04-04T01:52:46.147Z,11.23
2017-04-04T01:53:26.729Z,11.18
2017-04-04T01:54:07.326Z,11.25
2017-04-04T01:54:47.939Z,11.23
2017-04-04T01:55:28.536Z,11.18
2017-04-04T01:56:09.113Z,11.18
2017-04-04T01:56:49.690Z,11.15
2017-04-04T01:57:30.304Z,11.17
2017-04-04T01:58:10.875Z,11.11
2017-04-04T01:58:51.451Z,11.12
2017-04-04T01:59:32.140Z,11.18
2017-04-04T02:00:12.650Z,11.12
2017-04-04T02:00:53.263Z,11.14
2017-04-04T02:01:33.872Z,11.11
2017-04-04T02:02:14.495Z,11.11
2017-04-04T02:04:01.985Z,11.26
2017-04-04T02:04:42.553Z,11.12
2017-04-04T02:05:23.140Z,11.15
2017-04-04T02:06:03.715Z,11.14
2017-04-04T02:06:44.298Z,11.22
2017-04-04T02:07:24.858Z,11.17
2017-04-04T02:08:05.430Z,11.18
2017-04-04T02:08:46.014Z,11.12
2017-04-04T02:09:26.579Z,11.17
2017-04-04T02:10:07.156Z,11.18
2017-04-04T02:10:47.762Z,11.18
2017-04-04T02:11:28.341Z,11.18
2017-04-04T02:12:08.902Z,11.18
2017-04-04T02:12:49.484Z,11.14
2017-04-04T02:13:30.066Z,11.19
2017-04-04T02:14:10.653Z,11.22
2017-04-04T02:14:51.266Z,11.12
2017-04-04T02:15:31.836Z,11.22
2017-04-04T02:16:12.407Z,11.14
2017-04-04T02:16:52.972Z,11.22
2017-04-04T02:17:33.563Z,11.12
2017-04-04T02:18:14.129Z,11.22
2017-04-04T02:18:54.701Z,11.19
2017-04-04T02:19:35.269Z,11.19
2017-04-04T02:20:15.844Z,11.22
2017-04-04T02:20:56.420Z,11.17
2017-04-04T02:21:37.000Z,11.14
2017-04-04T02:22:17.574Z,11.25
2017-04-04T02:22:58.142Z,11.12
2017-04-04T02:23:38.732Z,11.26
2017-04-04T02:24:19.310Z,11.14
2017-04-04T02:24:59.891Z,11.14
2017-04-04T02:25:40.447Z,11.1
2017-04-04T02:26:21.024Z,11.17
2017-04-04T02:27:01.593Z,11.17
2017-04-04T02:27:42.159Z,11.08
2017-04-04T02:28:22.728Z,11.07
2017-04-04T02:29:03.329Z,11.17
2017-04-04T02:29:43.901Z,11.12
2017-04-04T02:30:24.489Z,11.17
2017-04-04T02:31:05.068Z,11.1
2017-04-04T02:31:45.649Z,11.17
2017-04-04T02:32:26.224Z,11.07
2017-04-04T02:33:06.798Z,11.11
2017-04-04T02:33:47.368Z,11.08
2017-04-04T02:34:27.938Z,11.07
2017-04-04T02:35:08.508Z,11.04
2017-04-04T02:35:49.093Z,11.07
2017-04-04T02:36:29.663Z,11.1
2017-04-04T02:37:10.232Z,11.05
2017-04-04T02:37:50.810Z,11.04
2017-04-04T02:38:31.392Z,11.08
2017-04-04T02:39:11.964Z,11.05
2017-04-04T02:39:52.552Z,11.08
2017-04-04T02:40:33.147Z,11.08
2017-04-04T02:41:13.750Z,11.07
2017-04-04T02:41:54.323Z,11.04
2017-04-04T02:42:34.899Z,11.1
2017-04-04T02:43:15.461Z,11.05
2017-04-04T02:43:56.046Z,11.11
2017-04-04T02:44:36.626Z,11.05
2017-04-04T02:45:17.196Z,11.08
2017-04-04T02:45:57.766Z,11.1
2017-04-04T02:46:38.355Z,11.08
2017-04-04T02:47:18.959Z,11.08
2017-04-04T02:47:59.534Z,11.05
2017-04-04T02:48:40.111Z,11.08
2017-04-04T02:49:20.704Z,11.05
2017-04-04T02:50:01.292Z,11.05
2017-04-04T02:50:41.859Z,11.02
2017-04-04T02:51:22.436Z,11.02
2017-04-04T02:52:03.003Z,11.05
2017-04-04T02:52:43.616Z,11.08
2017-04-04T02:53:24.207Z,11.08
2017-04-04T02:54:04.775Z,11.11
2017-04-04T02:54:45.347Z,11.05
2017-04-04T02:55:25.920Z,11.05
2017-04-04T02:56:06.487Z,11.15
2017-04-04T02:56:47.050Z,11.11
2017-04-04T02:57:27.636Z,11.08
2017-04-04T02:58:08.226Z,11.17
2017-04-04T02:58:48.794Z,11.14
2017-04-04T02:59:29.374Z,11.19
2017-04-04T03:00:09.956Z,11.18
2017-04-04T03:00:50.542Z,11.22
2017-04-04T03:01:31.137Z,11.25
2017-04-04T03:02:11.728Z,11.22
2017-04-04T03:02:52.329Z,11.22
2017-04-04T03:03:32.895Z,11.19
2017-04-04T03:04:13.486Z,11.27
2017-04-04T03:04:54.061Z,11.23
2017-04-04T03:05:34.626Z,11.23
2017-04-04T03:06:15.202Z,11.22
2017-04-04T03:06:55.783Z,11.19
2017-04-04T03:07:36.386Z,11.22
2017-04-04T03:08:16.959Z,11.23
2017-04-04T03:08:57.538Z,11.19
2017-04-04T03:09:38.117Z,11.22
2017-04-04T03:10:18.699Z,11.23
2017-04-04T03:10:59.309Z,11.22
2017-04-04T03:11:39.882Z,11.23
2017-04-04T03:12:20.482Z,11.23
2017-04-04T03:13:01.058Z,11.19
2017-04-04T03:13:41.644Z,11.29
2017-04-04T03:14:22.217Z,11.35
2017-04-04T03:15:02.808Z,11.22
2017-04-04T03:15:43.381Z,11.27
2017-04-04T03:16:23.959Z,11.33
2017-04-04T03:17:04.550Z,11.19
2017-04-04T03:17:45.116Z,11.19
2017-04-04T03:18:25.689Z,11.33
2017-04-04T03:19:06.260Z,11.32
2017-04-04T03:19:46.836Z,11.29
2017-04-04T03:20:27.419Z,11.27
2017-04-04T03:21:08.001Z,11.29
2017-04-04T03:21:48.580Z,11.32
2017-04-04T03:22:29.149Z,11.25
2017-04-04T03:23:09.724Z,11.33
2017-04-04T03:23:50.303Z,11.33
2017-04-04T03:24:30.884Z,11.29
2017-04-04T03:25:11.456Z,11.32
2017-04-04T03:25:52.056Z,11.35
2017-04-04T03:26:32.639Z,11.35
2017-04-04T03:27:13.210Z,11.35
2017-04-04T03:27:53.786Z,11.32
2017-04-04T03:28:34.376Z,11.35
2017-04-04T03:29:14.961Z,11.32
2017-04-04T03:29:55.550Z,11.33
2017-04-04T03:30:36.140Z,11.4
2017-04-04T03:31:16.763Z,11.35
2017-04-04T03:31:57.332Z,11.4
2017-04-04T03:32:37.896Z,11.33
2017-04-04T03:33:18.501Z,11.41
2017-04-04T03:33:59.085Z,11.43
2017-04-04T03:34:39.671Z,11.4
2017-04-04T03:35:20.264Z,11.37
2017-04-04T03:36:00.838Z,11.36
2017-04-04T03:36:41.420Z,11.41
2017-04-04T03:37:22.006Z,11.43
2017-04-04T03:38:02.600Z,11.43
2017-04-04T03:38:43.195Z,11.33
2017-04-04T03:39:23.763Z,11.35
2017-04-04T03:40:04.347Z,11.3
2017-04-04T03:40:44.914Z,11.35
2017-04-04T03:41:25.503Z,11.27
2017-04-04T03:42:06.064Z,11.18
2017-04-04T03:42:46.648Z,11.19
2017-04-04T03:43:27.229Z,11.23
2017-04-04T03:44:07.813Z,11.26
2017-04-04T03:44:48.383Z,11.26
2017-04-04T03:45:28.968Z,11.22
2017-04-04T03:46:09.547Z,11.08
2017-04-04T03:46:50.132Z,11.12
2017-04-04T03:47:30.703Z,11.17
2017-04-04T03:48:11.276Z,11.1
2017-04-04T03:48:51.869Z,11.11
2017-04-04T03:49:32.444Z,11.11
2017-04-04T03:50:13.051Z,11.11
2017-04-04T03:50:53.629Z,11.07
2017-04-04T03:51:34.198Z,11.07
2017-04-04T03:52:14.774Z,11.07
2017-04-04T03:52:55.359Z,11.07
2017-04-04T03:53:35.920Z,11.04
2017-04-04T03:54:16.498Z,11.08
2017-04-04T03:54:57.088Z,11.1
2017-04-04T03:55:37.659Z,11.07
2017-04-04T03:56:18.252Z,11.04
2017-04-04T03:56:58.835Z,11.12
2017-04-04T03:57:39.416Z,11.04
2017-04-04T03:58:20.011Z,11.02
2017-04-04T03:59:00.594Z,11.05
2017-04-04T03:59:41.173Z,11.07
2017-04-04T04:00:21.738Z,10.99
2017-04-04T04:01:02.334Z,10.99
2017-04-04T04:01:42.924Z,10.93
2017-04-04T04:02:23.501Z,10.94
2017-04-04T04:03:04.101Z,10.89
2017-04-04T04:03:44.735Z,10.92
2017-04-04T04:04:25.324Z,10.94
2017-04-04T04:05:05.927Z,11.02
2017-04-04T04:05:46.559Z,10.93
2017-04-04T04:06:27.099Z,10.89
2017-04-04T04:07:07.670Z,11
2017-04-04T04:07:48.245Z,10.9
2017-04-04T04:08:28.831Z,10.93
2017-04-04T04:09:09.413Z,10.96
2017-04-04T04:09:50.011Z,11.02
2017-04-04T04:10:30.589Z,10.97
2017-04-04T04:11:11.160Z,10.89
2017-04-04T04:11:51.750Z,10.89
2017-04-04T04:12:32.348Z,10.84
2017-04-04T04:13:12.932Z,10.86
2017-04-04T04:13:53.503Z,10.87
2017-04-04T04:14:34.082Z,10.89
2017-04-04T04:15:14.662Z,10.84
2017-04-04T04:15:55.244Z,10.78
2017-04-04T04:16:35.810Z,10.84
2017-04-04T04:17:16.393Z,10.78
2017-04-04T04:17:56.979Z,10.82
2017-04-04T04:18:37.534Z,10.82
2017-04-04T04:19:18.134Z,10.78
2017-04-04T04:19:58.693Z,10.79
2017-04-04T04:20:39.291Z,10.74
2017-04-04T04:21:19.900Z,10.78
2017-04-04T04:22:00.472Z,10.74
2017-04-04T04:22:41.068Z,10.75
2017-04-04T04:23:21.669Z,10.75
2017-04-04T04:24:02.258Z,10.76
2017-04-04T04:24:42.823Z,10.78
2017-04-04T04:25:23.420Z,10.75
2017-04-04T04:26:03.989Z,10.81
2017-04-04T04:26:44.570Z,10.71
2017-04-04T04:27:25.151Z,10.75
2017-04-04T04:28:05.726Z,10.79
2017-04-04T04:28:46.313Z,10.76
2017-04-04T04:29:26.887Z,10.68
2017-04-04T04:30:07.458Z,10.71
2017-04-04T04:30:48.030Z,10.74
2017-04-04T04:31:28.638Z,10.74
2017-04-04T04:32:09.228Z,10.71
2017-04-04T04:32:49.816Z,10.68
2017-04-04T04:33:30.387Z,10.72
2017-04-04T04:34:10.963Z,10.69
2017-04-04T04:34:51.532Z,10.74
2017-04-04T04:35:32.102Z,10.71
2017-04-04T04:36:12.700Z,10.78
2017-04-04T04:36:53.291Z,10.75
2017-04-04T04:37:33.863Z,10.74
2017-04-04T04:38:14.436Z,10.72
2017-04-04T04:38:55.029Z,10.76
2017-04-04T04:39:35.614Z,10.72
2017-04-04T04:40:16.194Z,10.69
2017-04-04T04:40:56.787Z,10.61
2017-04-04T04:41:37.368Z,10.69
2017-04-04T04:42:17.952Z,10.57
2017-04-04T04:42:58.516Z,10.6
2017-04-04T04:43:39.113Z,10.56
2017-04-04T04:44:19.707Z,10.72
2017-04-04T04:45:00.287Z,10.6
2017-04-04T04:45:40.866Z,10.68
2017-04-04T04:46:21.463Z,10.69
2017-04-04T04:47:02.047Z,10.69
2017-04-04T04:47:42.618Z,10.69
2017-04-04T04:48:23.206Z,10.68
2017-04-04T04:49:03.796Z,10.64
2017-04-04T04:49:44.426Z,10.59
2017-04-04T04:50:24.998Z,10.57
2017-04-04T04:51:05.592Z,10.63
2017-04-04T04:51:46.234Z,10.59
2017-04-04T04:52:26.796Z,10.67
2017-04-04T04:53:07.380Z,10.61
2017-04-04T04:53:47.950Z,10.71
2017-04-04T04:54:28.538Z,10.61
2017-04-04T04:55:09.117Z,10.59
2017-04-04T04:55:49.758Z,10.63
2017-04-04T04:56:30.378Z,10.61
2017-04-04T04:57:10.953Z,10.67
2017-04-04T04:57:51.635Z,10.64
2017-04-04T04:58:32.235Z,10.54
2017-04-04T04:59:12.808Z,10.59
2017-04-04T04:59:53.371Z,10.63
2017-04-04T05:00:33.940Z,10.61
2017-04-04T05:01:14.551Z,10.61
2017-04-04T05:01:55.126Z,10.56
2017-04-04T05:02:35.709Z,10.59
2017-04-04T05:03:16.285Z,10.61
2017-04-04T05:03:56.867Z,10.56
2017-04-04T05:04:37.446Z,10.63
2017-04-04T05:05:18.009Z,10.6
2017-04-04T05:05:58.623Z,10.61
2017-04-04T05:06:39.189Z,10.64
2017-04-04T05:07:19.762Z,10.6
2017-04-04T05:08:00.345Z,10.61
2017-04-04T05:08:40.924Z,10.63
2017-04-04T05:09:21.507Z,10.59
2017-04-04T05:10:02.102Z,10.54
2017-04-04T05:10:42.690Z,10.56
2017-04-04T05:11:23.260Z,10.59
2017-04-04T05:12:03.850Z,10.53
2017-04-04T05:12:44.424Z,10.6
2017-04-04T05:13:25.013Z,10.57
2017-04-04T05:14:05.596Z,10.46
2017-04-04T05:14:46.189Z,10.6
2017-04-04T05:15:26.769Z,10.6
2017-04-04T05:16:07.356Z,10.63
2017-04-04T05:16:47.939Z,10.63
2017-04-04T05:17:28.531Z,10.57
2017-04-04T05:18:09.107Z,10.51
2017-04-04T05:18:49.678Z,10.54
2017-04-04T05:19:30.265Z,10.64
2017-04-04T05:20:10.860Z,10.61
2017-04-04T05:20:51.435Z,10.63
2017-04-04T05:21:32.017Z,10.54
2017-04-04T05:22:12.595Z,10.6
2017-04-04T05:22:53.173Z,10.64
2017-04-04T05:23:33.738Z,10.64
2017-04-04T05:24:14.329Z,10.59
2017-04-04T05:24:54.913Z,10.59
2017-04-04T05:25:35.493Z,10.69
2017-04-04T05:26:16.064Z,10.68
2017-04-04T05:26:56.629Z,10.72
2017-04-04T05:27:37.222Z,10.79
2017-04-04T05:28:17.797Z,10.79
2017-04-04T05:28:58.367Z,10.68
2017-04-04T05:29:38.962Z,10.74
2017-04-04T05:30:19.530Z,10.76
2017-04-04T05:31:00.113Z,10.78
2017-04-04T05:31:40.679Z,10.72
2017-04-04T05:32:21.269Z,10.76
2017-04-04T05:33:01.850Z,10.78
2017-04-04T05:33:42.436Z,10.76
2017-04-04T05:34:23.053Z,10.78
2017-04-04T05:35:03.617Z,10.86
2017-04-04T05:35:44.184Z,10.82
2017-04-04T05:36:24.756Z,10.84
2017-04-04T05:37:05.337Z,10.82
2017-04-04T05:37:45.913Z,10.82
2017-04-04T05:38:26.483Z,10.93
2017-04-04T05:39:07.087Z,10.84
2017-04-04T05:39:47.655Z,10.87
2017-04-04T05:40:28.233Z,10.82
2017-04-04T05:41:08.813Z,10.86
2017-04-04T05:41:49.378Z,10.86
2017-04-04T05:42:29.961Z,10.84
2017-04-04T05:43:10.535Z,10.86
2017-04-04T05:43:51.100Z,10.87
2017-04-04T05:44:31.700Z,10.79
2017-04-04T05:45:12.282Z,10.86
2017-04-04T05:45:52.870Z,10.76
2017-04-04T05:46:33.457Z,10.74
2017-04-04T05:47:14.034Z,10.87
2017-04-04T05:47:54.637Z,10.94
2017-04-04T05:48:35.219Z,10.96
2017-04-04T05:49:15.787Z,11.05
2017-04-04T05:49:56.441Z,11.07
2017-04-04T05:50:37.026Z,11.05
2017-04-04T05:51:17.610Z,11.14
2017-04-04T05:51:58.194Z,11.04
2017-04-04T05:52:38.778Z,11.04
2017-04-04T05:53:19.371Z,11.04
2017-04-04T05:53:59.950Z,11.04
2017-04-04T05:54:40.545Z,11.1
2017-04-04T05:55:21.119Z,11
2017-04-04T05:56:01.713Z,11.02
2017-04-04T05:56:42.298Z,11.05
2017-04-04T05:57:22.895Z,11.08
2017-04-04T05:58:03.465Z,10.96
2017-04-04T05:58:44.050Z,11.05
2017-04-04T05:59:24.624Z,10.96
2017-04-04T06:00:05.248Z,10.97
2017-04-04T06:00:45.829Z,10.99
2017-04-04T06:01:26.416Z,10.92
2017-04-04T06:02:06.989Z,11
2017-04-04T06:02:47.567Z,10.9
2017-04-04T06:03:28.140Z,10.92
2017-04-04T06:04:08.724Z,10.94
2017-04-04T06:04:49.318Z,10.99
2017-04-04T06:05:29.898Z,10.9
2017-04-04T06:06:10.479Z,10.94
2017-04-04T06:06:51.056Z,10.93
2017-04-04T06:07:31.629Z,10.96
2017-04-04T06:08:12.230Z,10.96
2017-04-04T06:08:52.847Z,11.04
2017-04-04T06:09:33.435Z,10.9
2017-04-04T06:10:14.013Z,10.97
2017-04-04T06:10:54.585Z,10.92
2017-04-04T06:11:35.171Z,10.93
2017-04-04T06:12:15.754Z,10.92
2017-04-04T06:12:56.321Z,10.87
2017-04-04T06:13:36.902Z,10.87
2017-04-04T06:14:17.481Z,10.87
2017-04-04T06:14:58.091Z,10.81
2017-04-04T06:15:38.676Z,10.84
2017-04-04T06:16:19.253Z,10.82
2017-04-04T06:16:59.833Z,10.81
2017-04-04T06:17:40.398Z,10.74
2017-04-04T06:18:20.961Z,10.75
2017-04-04T06:19:01.556Z,10.76
2017-04-04T06:19:42.121Z,10.79
2017-04-04T06:20:22.736Z,10.74
2017-04-04T06:21:03.310Z,10.75
2017-04-04T06:21:43.897Z,10.78
2017-04-04T06:22:24.488Z,10.78
2017-04-04T06:23:05.065Z,10.76
2017-04-04T06:23:45.656Z,10.79
2017-04-04T06:24:26.245Z,10.86
2017-04-04T06:25:06.824Z,10.86
2017-04-04T06:25:47.387Z,10.87
2017-04-04T06:26:27.961Z,10.87
2017-04-04T06:27:08.546Z,10.86
2017-04-04T06:27:49.159Z,10.84
2017-04-04T06:28:29.735Z,10.87
2017-04-04T06:29:10.327Z,10.81
2017-04-04T06:29:50.912Z,10.94
2017-04-04T06:30:31.472Z,10.92
2017-04-04T06:31:12.040Z,10.89
2017-04-04T06:31:52.618Z,10.84
2017-04-04T06:32:33.204Z,10.94
2017-04-04T06:33:13.794Z,10.87
2017-04-04T06:33:54.379Z,10.87
2017-04-04T06:34:34.946Z,10.87
2017-04-04T06:35:15.569Z,11
2017-04-04T06:35:56.169Z,10.92
2017-04-04T06:36:36.738Z,10.9
2017-04-04T06:37:17.304Z,10.99
2017-04-04T06:37:57.885Z,10.92
2017-04-04T06:38:38.480Z,10.84
2017-04-04T06:39:19.061Z,10.89
2017-04-04T06:39:59.642Z,10.86
2017-04-04T06:40:40.205Z,10.84
2017-04-04T06:41:20.792Z,10.86
2017-04-04T06:42:01.398Z,10.87
2017-04-04T06:42:41.958Z,10.82
2017-04-04T06:43:22.539Z,10.87
2017-04-04T06:44:03.110Z,10.87
2017-04-04T06:44:43.713Z,10.76
2017-04-04T06:45:24.286Z,10.78
2017-04-04T06:46:04.895Z,10.78
2017-04-04T06:46:45.471Z,10.87
2017-04-04T06:47:26.039Z,10.76
2017-04-04T06:48:06.619Z,10.75
2017-04-04T06:48:47.195Z,10.78
2017-04-04T06:49:27.766Z,10.76
2017-04-04T06:50:08.357Z,10.78
2017-04-04T06:50:48.934Z,10.76
2017-04-04T06:51:29.532Z,10.79
2017-04-04T06:52:10.127Z,10.76
2017-04-04T06:52:50.704Z,10.84
2017-04-04T06:53:31.311Z,10.87
2017-04-04T06:54:11.888Z,10.84
2017-04-04T06:54:52.463Z,10.87
2017-04-04T06:55:33.067Z,10.82
2017-04-04T06:56:13.635Z,10.86
2017-04-04T06:56:54.212Z,10.89
2017-04-04T06:57:34.807Z,10.87
2017-04-04T06:58:15.382Z,10.9
2017-04-04T06:58:55.969Z,10.84
2017-04-04T06:59:36.558Z,10.82
2017-04-04T07:00:17.143Z,10.86
2017-04-04T07:00:57.724Z,10.84
2017-04-04T07:01:38.337Z,10.82
2017-04-04T07:02:18.907Z,10.86
2017-04-04T07:02:59.501Z,10.97
2017-04-04T07:03:40.077Z,11.14
2017-04-04T07:04:20.680Z,11.25
2017-04-04T07:05:01.476Z,11.47
2017-04-04T07:05:42.072Z,11.63
2017-04-04T07:06:22.643Z,11.68
2017-04-04T07:07:03.240Z,11.9
2017-04-04T07:07:43.802Z,12.07
2017-04-04T07:08:24.637Z,12.09
2017-04-04T07:09:05.251Z,12.27
2017-04-04T07:09:45.838Z,12.27
2017-04-04T07:10:26.452Z,12.35
2017-04-04T07:11:07.046Z,12.46
2017-04-04T07:11:47.671Z,12.5
2017-04-04T07:12:28.556Z,12.61
2017-04-04T07:13:09.091Z,12.58
2017-04-04T07:13:49.673Z,12.57
2017-04-04T07:14:30.291Z,12.58
2017-04-04T07:15:11.133Z,12.54
2017-04-04T07:15:51.752Z,12.62
2017-04-04T07:16:32.312Z,12.65
2017-04-04T07:17:12.885Z,12.79
2017-04-04T07:17:53.520Z,12.82
2017-04-04T07:18:34.098Z,12.86
2017-04-04T07:19:14.842Z,12.98
2017-04-04T07:19:55.436Z,12.98
2017-04-04T07:20:36.029Z,13.05
2017-04-04T07:21:16.609Z,12.98
2017-04-04T07:21:57.238Z,12.97
2017-04-04T07:22:37.816Z,12.97
2017-04-04T07:23:18.970Z,12.97
2017-04-04T07:23:59.560Z,12.95
2017-04-04T07:24:40.139Z,13.01
2017-04-04T07:25:20.806Z,13.08
2017-04-04T07:26:01.389Z,13.09
2017-04-04T07:26:41.978Z,13.22
2017-04-04T07:27:22.576Z,13.12
2017-04-04T07:28:03.214Z,13.22
2017-04-04T07:28:43.777Z,13.18
2017-04-04T07:29:24.836Z,13.16
2017-04-04T07:30:06.321Z,13.13
2017-04-04T07:30:47.204Z,13.12
2017-04-04T07:31:27.807Z,13
2017-04-04T07:32:08.396Z,12.78
2017-04-04T07:32:48.969Z,12.8
2017-04-04T07:33:29.584Z,12.73
2017-04-04T07:34:10.186Z,12.7
2017-04-04T07:34:50.753Z,12.83
2017-04-04T07:35:31.338Z,12.83
2017-04-04T07:36:11.919Z,12.94
2017-04-04T07:36:52.543Z,12.95
2017-04-04T07:37:33.136Z,13.11
2017-04-04T07:38:13.733Z,13.16
2017-04-04T07:38:54.318Z,13.19
2017-04-04T07:39:34.912Z,13.37
2017-04-04T07:40:15.503Z,13.3
2017-04-04T07:40:56.081Z,13.41
2017-04-04T07:41:36.650Z,13.31
2017-04-04T07:42:17.270Z,13.22
2017-04-04T07:42:57.849Z,13.18
2017-04-04T07:43:38.444Z,13.11
2017-04-04T07:44:19.094Z,13.05
2017-04-04T07:44:59.695Z,13.05
2017-04-04T07:45:40.306Z,12.98
2017-04-04T07:46:20.885Z,12.9
2017-04-04T07:47:01.484Z,12.76
2017-04-04T07:47:42.052Z,12.62
2017-04-04T07:48:22.676Z,12.5
2017-04-04T07:49:03.324Z,12.4
2017-04-04T07:49:43.927Z,12.31
2017-04-04T07:50:24.524Z,12.24
2017-04-04T07:51:05.113Z,12.15
2017-04-04T07:51:45.722Z,12.09
2017-04-04T07:52:26.344Z,11.95
2017-04-04T07:53:07.095Z,11.9
2017-04-04T07:53:47.680Z,11.91
2017-04-04T07:54:28.295Z,11.88
2017-04-04T07:55:08.925Z,11.91
2017-04-04T07:55:49.515Z,11.78
2017-04-04T07:56:30.095Z,11.77
2017-04-04T07:57:10.678Z,11.72
2017-04-04T07:57:51.303Z,11.7
2017-04-04T07:58:31.907Z,11.63
2017-04-04T07:59:12.495Z,11.63
2017-04-04T07:59:53.117Z,11.66
2017-04-04T08:00:33.725Z,11.62
2017-04-04T08:01:14.286Z,11.62
2017-04-04T08:01:54.874Z,11.63
2017-04-04T08:02:35.549Z,11.52
2017-04-04T08:03:16.143Z,11.5
2017-04-04T08:03:56.737Z,11.47
2017-04-04T08:04:37.316Z,11.33
2017-04-04T08:05:17.917Z,11.37
2017-04-04T08:05:58.522Z,11.41
2017-04-04T08:06:39.121Z,11.36
2017-04-04T08:07:19.716Z,11.35
2017-04-04T08:08:00.375Z,11.36
2017-04-04T08:08:40.960Z,11.35
2017-04-04T08:09:21.560Z,11.36
2017-04-04T08:10:02.126Z,11.27
2017-04-04T08:10:42.701Z,11.27
2017-04-04T08:11:23.287Z,11.35
2017-04-04T08:12:03.856Z,11.32
2017-04-04T08:12:44.446Z,11.29
2017-04-04T08:13:25.035Z,11.32
2017-04-04T08:14:05.729Z,11.37
2017-04-04T08:14:46.324Z,11.29
2017-04-04T08:15:26.905Z,11.35
2017-04-04T08:16:07.515Z,11.18
2017-04-04T08:16:48.090Z,11.22
2017-04-04T08:17:28.670Z,11.27
2017-04-04T08:18:09.268Z,11.23
2017-04-04T08:18:49.877Z,11.08
2017-04-04T08:19:30.456Z,11.14
2017-04-04T08:20:11.035Z,11.18
2017-04-04T08:20:51.639Z,11.07
2017-04-04T08:21:32.220Z,11.11
2017-04-04T08:22:12.798Z,11.1
2017-04-04T08:22:53.382Z,11.08
2017-04-04T08:23:33.987Z,11
2017-04-04T08:24:14.562Z,11.05
2017-04-04T08:24:55.153Z,11.08
2017-04-04T08:25:35.722Z,11.1
2017-04-04T08:26:16.318Z,11.14
2017-04-04T08:26:56.890Z,11.07
2017-04-04T08:27:37.472Z,11.19
2017-04-04T08:28:18.046Z,11.19
2017-04-04T08:28:58.650Z,11.1
2017-04-04T08:29:39.233Z,11.12
2017-04-04T08:30:19.812Z,11.17
2017-04-04T08:31:00.384Z,11.08
2017-04-04T08:31:40.964Z,11.12
2017-04-04T08:32:21.542Z,11.26
2017-04-04T08:33:02.124Z,11.27
2017-04-04T08:33:42.696Z,11.22
2017-04-04T08:34:23.269Z,11.22
2017-04-04T08:35:03.839Z,11.25
2017-04-04T08:35:44.425Z,11.3
2017-04-04T08:36:25.013Z,11.32
2017-04-04T08:37:05.601Z,11.27
2017-04-04T08:37:46.170Z,11.32
2017-04-04T08:38:26.741Z,11.37
2017-04-04T08:39:07.313Z,11.32
2017-04-04T08:39:47.890Z,11.4
2017-04-04T08:40:28.475Z,11.37
2017-04-04T08:41:09.055Z,11.36
2017-04-04T08:41:49.950Z,11.48
2017-04-04T08:42:30.674Z,11.47
2017-04-04T08:43:11.313Z,11.5
2017-04-04T08:43:51.890Z,11.47
2017-04-04T08:44:32.497Z,11.44
2017-04-04T08:45:13.088Z,11.47
2017-04-04T08:45:53.679Z,11.5
2017-04-04T08:46:34.265Z,11.5
2017-04-04T08:47:14.868Z,11.54